Time;durP1;ratioP1;P1;durP2;ratioP2;P2;SDS_P1;SDS_P2;PMS_P1;PMS_P2;Temp;Humidity;BMP_temperature;BMP_pressure;BME280_temperature;BME280_humidity;BME280_pressure;Samples;Min_cycle;Max_cycle;Signal;HPM_P1;HPM_P2
2023/04/28 00:01:50;;;;;;;7.83;3.67;;;10.00;99.90;;;;;;5010668;28;20038;-50
2023/04/28 00:04:15;;;;;;;5.83;3.23;;;10.00;99.90;;;;;;5010636;28;20034;-47
2023/04/28 00:06:41;;;;;;;7.83;3.40;;;10.00;99.50;;;;;;5010741;28;20025;-46
2023/04/28 00:09:10;;;;;;;8.30;4.10;;;10.00;99.90;;;;;;5010815;28;20457;-46
2023/04/28 00:11:39;;;;;;;11.55;4.55;;;9.90;99.90;;;;;;5010856;28;20946;-48
2023/04/28 00:14:05;;;;;;;7.85;3.58;;;9.90;99.90;;;;;;5010568;28;20098;-48
2023/04/28 00:16:30;;;;;;;8.27;4.13;;;9.80;99.90;;;;;;5010553;28;20497;-46
2023/04/28 00:18:56;;;;;;;10.20;3.90;;;9.80;99.90;;;;;;5010685;28;20030;-46
2023/04/28 00:21:22;;;;;;;7.83;3.30;;;9.80;99.90;;;;;;5010569;28;20033;-46
2023/04/28 00:23:47;;;;;;;7.23;3.27;;;9.70;99.90;;;;;;5010268;28;20029;-49
2023/04/28 00:26:13;;;;;;;8.07;4.30;;;9.70;99.90;;;;;;5010888;28;20026;-50
2023/04/28 00:28:41;;;;;;;6.20;3.40;;;9.70;99.90;;;;;;4993453;28;20030;-46
2023/04/28 00:31:11;;;;;;;9.53;3.80;;;9.60;99.90;;;;;;5010738;28;20037;-48
2023/04/28 00:33:41;;;;;;;8.17;3.50;;;9.60;99.90;;;;;;5010328;28;20037;-50
2023/04/28 00:36:07;;;;;;;8.03;3.80;;;9.60;99.90;;;;;;5010596;28;20029;-52
2023/04/28 00:38:33;;;;;;;11.20;4.03;;;9.50;99.90;;;;;;5010376;28;20038;-50
2023/04/28 00:40:59;;;;;;;11.37;4.17;;;9.50;99.90;;;;;;5014048;28;20038;-46
2023/04/28 00:43:24;;;;;;;9.53;3.83;;;9.50;99.90;;;;;;4996033;28;20030;-50
2023/04/28 00:45:50;;;;;;;6.73;3.60;;;9.40;99.90;;;;;;4996295;28;20589;-49
2023/04/28 00:48:17;;;;;;;8.33;3.93;;;9.40;99.90;;;;;;5013784;28;20475;-46
2023/04/28 00:50:44;;;;;;;7.60;3.70;;;9.40;99.90;;;;;;4996519;28;20037;-47
2023/04/28 00:53:10;;;;;;;10.13;4.10;;;9.30;99.90;;;;;;5013732;28;20060;-50
2023/04/28 00:55:37;;;;;;;8.33;4.47;;;9.30;99.90;;;;;;5013558;28;20475;-50
2023/04/28 00:58:04;;;;;;;8.47;4.20;;;9.20;99.90;;;;;;4996017;28;20030;-48
2023/04/28 01:00:30;;;;;;;8.07;3.67;;;9.20;99.90;;;;;;5013656;28;20101;-49
2023/04/28 01:02:56;;;;;;;9.87;4.27;;;9.10;99.90;;;;;;5013497;28;20101;-49
2023/04/28 01:05:27;;;;;;;9.00;4.10;;;9.00;99.90;;;;;;4995655;28;20026;-47
2023/04/28 01:07:53;;;;;;;13.17;4.97;;;9.00;99.90;;;;;;5013305;28;20026;-46
2023/04/28 01:10:19;;;;;;;13.30;5.00;;;8.90;99.90;;;;;;4995813;28;20030;-46
2023/04/28 01:12:46;;;;;;;11.53;4.57;;;8.80;99.90;;;;;;4995565;28;20034;-48
2023/04/28 01:15:16;;;;;;;10.63;4.43;;;8.80;99.90;;;;;;5012982;28;20109;-46
2023/04/28 01:17:43;;;;;;;10.43;4.50;;;8.70;99.90;;;;;;4995347;28;20041;-48
2023/04/28 01:20:10;;;;;;;8.60;4.17;;;8.60;99.90;;;;;;4995500;28;20317;-50
2023/04/28 01:22:35;;;;;;;13.40;5.43;;;8.60;99.90;;;;;;4995341;28;20037;-48
2023/04/28 01:25:02;;;;;;;10.57;5.17;;;8.60;99.90;;;;;;4979153;28;20025;-47
2023/04/28 01:27:29;;;;;;;11.30;5.03;;;8.60;99.90;;;;;;4995083;28;20502;-47
2023/04/28 01:29:56;;;;;;;9.67;4.50;;;8.70;99.90;;;;;;4995227;28;20087;-50
2023/04/28 01:32:22;;;;;;;10.90;5.10;;;8.70;99.90;;;;;;4995189;28;20034;-46
2023/04/28 01:34:48;;;;;;;10.60;5.33;;;8.80;99.90;;;;;;5012557;28;20109;-47
2023/04/28 01:37:13;;;;;;;8.27;5.00;;;8.80;99.90;;;;;;4994969;28;20491;-50
2023/04/28 01:39:39;;;;;;;10.47;4.50;;;8.80;99.90;;;;;;5012802;28;20109;-52
2023/04/28 01:42:05;;;;;;;14.53;5.33;;;8.90;99.90;;;;;;4994989;28;20034;-49
2023/04/28 01:44:31;;;;;;;11.07;5.57;;;8.80;99.90;;;;;;5021911;23;20514;-53
2023/04/28 01:46:57;;;;;;;11.47;5.27;;;8.80;99.90;;;;;;5032111;28;20030;-50
2023/04/28 01:49:23;;;;;;;10.67;5.53;;;8.60;99.90;;;;;;5032127;28;20382;-52
2023/04/28 01:51:49;;;;;;;12.30;5.43;;;8.60;99.90;;;;;;5031217;28;20055;-53
2023/04/28 01:54:14;;;;;;;12.30;5.57;;;8.60;99.90;;;;;;5032000;28;20057;-52
2023/04/28 01:56:40;;;;;;;12.80;5.87;;;8.50;99.90;;;;;;5032116;28;20025;-51
2023/04/28 01:59:06;;;;;;;14.23;6.03;;;8.40;99.90;;;;;;5032144;28;20371;-49
2023/04/28 02:01:33;;;;;;;15.43;6.03;;;8.30;99.90;;;;;;5014206;28;20037;-50
2023/04/28 02:03:59;;;;;;;10.50;5.57;;;8.30;99.90;;;;;;5014048;28;20301;-51
2023/04/28 02:06:26;;;;;;;14.23;5.93;;;8.30;99.90;;;;;;5014269;28;20032;-52
2023/04/28 02:08:52;;;;;;;14.63;6.17;;;8.30;99.90;;;;;;5031855;28;20105;-51
2023/04/28 02:11:18;;;;;;;12.50;5.70;;;8.40;99.90;;;;;;5031939;28;20116;-52
2023/04/28 02:13:43;;;;;;;14.50;6.07;;;8.30;99.90;;;;;;5013876;28;20160;-53
2023/04/28 02:16:09;;;;;;;13.63;6.67;;;8.40;99.90;;;;;;5031834;28;20057;-49
2023/04/28 02:18:35;;;;;;;13.27;6.00;;;8.40;99.90;;;;;;5013781;28;20128;-51
2023/04/28 02:21:11;;;;;;;14.23;6.57;;;8.40;99.90;;;;;;5031628;28;20095;-48
2023/04/28 02:23:38;;;;;;;13.07;5.50;;;8.50;99.90;;;;;;5031573;28;20030;-49
2023/04/28 02:26:04;;;;;;;13.03;6.30;;;8.50;99.90;;;;;;5013881;28;20075;-52
2023/04/28 02:28:30;;;;;;;10.33;6.23;;;8.50;99.90;;;;;;5013634;28;20033;-50
2023/04/28 02:31:22;;;;;;;15.57;5.93;;;8.50;99.90;;;;;;5031465;28;20482;-50
2023/04/28 02:33:48;;;;;;;13.27;6.60;;;8.60;99.90;;;;;;5010948;28;20041;-49
2023/04/28 02:36:14;;;;;;;13.23;6.10;;;8.60;99.90;;;;;;5013659;28;20087;-52
2023/04/28 02:38:40;;;;;;;10.87;5.90;;;8.70;99.90;;;;;;5013449;28;20030;-52
2023/04/28 02:41:08;;;;;;;13.37;6.70;;;8.70;99.90;;;;;;5013583;28;20068;-53
2023/04/28 02:43:36;;;;;;;14.32;7.05;;;8.80;99.90;;;;;;5013108;28;20057;-51
2023/04/28 02:46:03;;;;;;;13.07;5.77;;;8.80;99.90;;;;;;5013500;28;20045;-53
2023/04/28 02:48:29;;;;;;;13.83;6.40;;;8.70;99.90;;;;;;5013543;28;20418;-50
2023/04/28 02:50:55;;;;;;;14.20;6.27;;;8.70;99.90;;;;;;5031169;28;20481;-49
2023/04/28 02:53:21;;;;;;;13.43;6.80;;;8.70;99.90;;;;;;5013211;28;20032;-52
2023/04/28 02:55:47;;;;;;;13.27;6.67;;;8.70;99.90;;;;;;5013419;28;20021;-50
2023/04/28 02:58:13;;;;;;;12.33;6.27;;;8.70;99.90;;;;;;5013093;28;20037;-49
2023/04/28 03:00:39;;;;;;;14.87;6.90;;;8.60;99.90;;;;;;5013222;28;20172;-51
2023/04/28 03:03:05;;;;;;;13.67;6.53;;;8.60;99.90;;;;;;5012784;28;20040;-50
2023/04/28 03:05:31;;;;;;;14.83;7.33;;;8.60;99.90;;;;;;5030851;28;20026;-49
2023/04/28 03:07:58;;;;;;;12.90;6.23;;;8.70;99.90;;;;;;5013039;28;20029;-49
2023/04/28 03:10:24;;;;;;;12.87;6.97;;;8.60;99.90;;;;;;5013320;28;20032;-52
2023/04/28 03:12:49;;;;;;;16.03;7.30;;;8.60;99.90;;;;;;5012813;28;20116;-53
2023/04/28 03:15:17;;;;;;;13.33;7.17;;;8.70;99.90;;;;;;5012827;28;20556;-52
2023/04/28 03:17:42;;;;;;;14.80;7.10;;;8.70;99.90;;;;;;5012851;28;20037;-53
2023/04/28 03:20:09;;;;;;;15.20;6.23;;;8.70;99.90;;;;;;5012913;28;20060;-51
2023/04/28 03:22:35;;;;;;;12.00;6.70;;;8.70;99.90;;;;;;5030459;28;20083;-51
2023/04/28 03:25:01;;;;;;;15.03;7.20;;;8.70;99.90;;;;;;5030929;28;20109;-51
2023/04/28 03:27:30;;;;;;;16.13;7.20;;;8.70;99.90;;;;;;5012581;28;20022;-52
2023/04/28 03:29:56;;;;;;;12.80;6.90;;;8.70;99.90;;;;;;5012729;28;20117;-52
2023/04/28 03:32:22;;;;;;;15.60;7.37;;;8.70;99.90;;;;;;5012808;28;20065;-50
2023/04/28 03:34:48;;;;;;;13.97;7.33;;;8.70;99.90;;;;;;5012525;28;20375;-53
2023/04/28 03:37:14;;;;;;;14.33;7.23;;;8.80;99.90;;;;;;5012556;28;20387;-49
2023/04/28 03:39:40;;;;;;;11.90;6.43;;;8.80;99.90;;;;;;5012725;28;20025;-49
2023/04/28 03:42:06;;;;;;;16.33;7.57;;;8.80;99.90;;;;;;5012598;28;20120;-52
2023/04/28 03:44:37;;;;;;;14.63;7.00;;;8.80;99.90;;;;;;5030208;28;20052;-53
2023/04/28 03:47:05;;;;;;;12.00;6.47;;;8.80;99.90;;;;;;5012592;28;20370;-49
2023/04/28 03:49:31;;;;;;;12.70;6.27;;;8.90;99.90;;;;;;5012729;28;20037;-52
2023/04/28 03:51:57;;;;;;;15.73;7.63;;;9.00;99.90;;;;;;5012638;28;20424;-50
2023/04/28 03:54:24;;;;;;;11.43;5.93;;;9.00;99.90;;;;;;5012332;28;20038;-53
2023/04/28 03:56:49;;;;;;;13.20;6.47;;;9.00;99.90;;;;;;5012291;28;20033;-51
2023/04/28 03:59:15;;;;;;;13.30;7.07;;;9.10;99.90;;;;;;5012432;28;20044;-49
2023/04/28 04:01:41;;;;;;;11.13;5.93;;;9.10;99.90;;;;;;5012413;28;20116;-51
2023/04/28 04:04:07;;;;;;;10.93;5.50;;;9.10;99.90;;;;;;5029927;28;20104;-51
2023/04/28 04:06:33;;;;;;;12.13;6.40;;;9.20;99.90;;;;;;5012270;28;20486;-51
2023/04/28 04:09:00;;;;;;;10.23;5.67;;;9.20;99.90;;;;;;5012307;28;20025;-52
2023/04/28 04:11:26;;;;;;;10.37;5.50;;;9.30;99.90;;;;;;5030155;28;20482;-48
2023/04/28 04:13:51;;;;;;;10.33;5.77;;;9.30;99.90;;;;;;5030494;28;20055;-52
2023/04/28 04:16:22;;;;;;;10.40;5.37;;;9.40;99.90;;;;;;5016056;28;20029;-51
2023/04/28 04:18:48;;;;;;;11.60;5.07;;;9.50;99.90;;;;;;5033886;28;20040;-53
2023/04/28 04:21:18;;;;;;;12.60;5.77;;;9.50;99.90;;;;;;5016310;28;20522;-52
2023/04/28 04:23:44;;;;;;;10.80;5.37;;;9.50;99.90;;;;;;5015822;28;20029;-54
2023/04/28 04:26:11;;;;;;;9.47;4.77;;;9.60;99.90;;;;;;5016032;28;20401;-53
2023/04/28 04:28:37;;;;;;;10.00;5.13;;;9.60;99.90;;;;;;5015672;28;20029;-52
2023/04/28 04:31:05;;;;;;;8.33;5.00;;;9.60;99.90;;;;;;5016020;28;20083;-51
2023/04/28 04:33:31;;;;;;;10.17;5.13;;;9.60;99.90;;;;;;5015598;28;20116;-53
2023/04/28 04:35:57;;;;;;;10.77;5.97;;;9.60;99.90;;;;;;5015802;28;20534;-52
2023/04/28 04:38:23;;;;;;;10.63;5.30;;;9.60;99.90;;;;;;5015586;28;20017;-49
2023/04/28 04:40:49;;;;;;;10.10;5.33;;;9.60;99.90;;;;;;5033623;28;20091;-52
2023/04/28 04:43:14;;;;;;;11.10;5.70;;;9.60;99.90;;;;;;5015424;28;20441;-54
2023/04/28 04:45:45;;;;;;;9.53;5.43;;;9.60;99.90;;;;;;5015730;28;20418;-53
2023/04/28 04:48:12;;;;;;;12.43;5.57;;;9.60;99.90;;;;;;5015351;28;20029;-51
2023/04/28 04:50:40;;;;;;;10.00;5.30;;;9.50;99.90;;;;;;5015476;28;20030;-52
2023/04/28 04:53:06;;;;;;;13.30;6.43;;;9.50;99.90;;;;;;5015406;28;20025;-53
2023/04/28 04:55:32;;;;;;;13.10;6.87;;;9.50;99.90;;;;;;5015208;28;20030;-52
2023/04/28 04:57:58;;;;;;;11.17;6.03;;;9.50;99.90;;;;;;5015216;28;20056;-54
2023/04/28 05:00:24;;;;;;;10.63;5.73;;;9.50;99.90;;;;;;5032997;28;20030;-50
2023/04/28 05:02:51;;;;;;;12.97;5.67;;;9.50;99.90;;;;;;5015510;28;20034;-53
2023/04/28 05:05:17;;;;;;;11.23;5.13;;;9.50;99.90;;;;;;5032777;28;20055;-51
2023/04/28 05:07:44;;;;;;;11.67;5.83;;;9.50;99.90;;;;;;5014986;28;20427;-53
2023/04/28 05:10:12;;;;;;;10.60;6.00;;;9.50;99.90;;;;;;5015050;28;20100;-53
2023/04/28 05:12:39;;;;;;;9.00;5.20;;;9.50;99.90;;;;;;5015021;28;20036;-50
2023/04/28 05:15:06;;;;;;;11.23;5.47;;;9.60;99.90;;;;;;5032645;28;20120;-50
2023/04/28 05:17:34;;;;;;;12.27;5.83;;;9.60;99.90;;;;;;5014760;28;20556;-47
2023/04/28 05:20:00;;;;;;;9.97;5.43;;;9.60;99.90;;;;;;5032653;28;20026;-51
2023/04/28 05:22:26;;;;;;;11.07;5.60;;;9.60;99.90;;;;;;5014879;28;20056;-52
2023/04/28 05:24:52;;;;;;;9.97;5.23;;;9.70;99.90;;;;;;5014358;28;20025;-53
2023/04/28 05:27:18;;;;;;;9.33;5.50;;;9.70;99.90;;;;;;5032324;28;20053;-49
2023/04/28 05:29:44;;;;;;;10.80;5.40;;;9.70;99.90;;;;;;5014678;28;20482;-54
2023/04/28 05:32:10;;;;;;;10.00;5.70;;;9.70;99.90;;;;;;5014635;28;20040;-50
2023/04/28 05:34:36;;;;;;;12.47;5.83;;;9.80;99.90;;;;;;5014474;28;20030;-51
2023/04/28 05:37:01;;;;;;;8.63;4.97;;;9.80;99.90;;;;;;5032460;28;20252;-50
2023/04/28 05:39:29;;;;;;;9.03;5.20;;;9.80;99.90;;;;;;5014440;28;20087;-51
2023/04/28 05:41:57;;;;;;;9.03;5.53;;;9.80;99.90;;;;;;5014463;28;20029;-50
2023/04/28 05:44:23;;;;;;;11.73;5.70;;;9.90;99.90;;;;;;5031957;28;20037;-51
2023/04/28 05:46:49;;;;;;;10.73;5.80;;;9.80;99.90;;;;;;5014280;28;20112;-51
2023/04/28 05:49:20;;;;;;;11.43;5.37;;;9.90;99.90;;;;;;5014440;28;20033;-49
2023/04/28 05:51:46;;;;;;;8.90;5.63;;;10.00;99.90;;;;;;5014464;28;20175;-53
2023/04/28 05:54:12;;;;;;;10.13;5.43;;;9.90;99.90;;;;;;5014220;28;20064;-51
2023/04/28 05:56:42;;;;;;;9.07;5.20;;;9.90;99.90;;;;;;5014018;28;20033;-53
2023/04/28 05:59:08;;;;;;;10.97;5.63;;;10.00;99.90;;;;;;5014169;28;20030;-54
2023/04/28 06:01:35;;;;;;;10.27;5.00;;;10.00;99.90;;;;;;5014182;28;20029;-52
2023/04/28 06:04:01;;;;;;;11.50;6.03;;;10.00;99.90;;;;;;5014010;28;20028;-53
2023/04/28 06:06:26;;;;;;;10.40;5.50;;;10.10;99.90;;;;;;5013834;28;20117;-52
2023/04/28 06:08:53;;;;;;;9.97;6.03;;;10.10;99.90;;;;;;5014051;28;20127;-53
2023/04/28 06:11:21;;;;;;;9.53;5.43;;;10.10;99.90;;;;;;5014161;28;20053;-55
2023/04/28 06:13:50;;;;;;;11.40;6.33;;;10.10;99.90;;;;;;5013776;28;20033;-54
2023/04/28 06:16:17;;;;;;;10.50;5.67;;;10.10;99.90;;;;;;5013941;28;20407;-54
2023/04/28 06:18:43;;;;;;;12.87;6.00;;;10.10;99.90;;;;;;5013810;28;20036;-51
2023/04/28 06:21:09;;;;;;;9.63;5.53;;;10.20;99.90;;;;;;5031784;28;20037;-49
2023/04/28 06:23:35;;;;;;;9.53;5.20;;;10.20;99.90;;;;;;5013486;28;20057;-53
2023/04/28 06:26:01;;;;;;;8.70;5.07;;;10.20;99.90;;;;;;5013858;28;20116;-49
2023/04/28 06:28:27;;;;;;;11.20;5.13;;;10.30;99.90;;;;;;5031254;28;20558;-48
2023/04/28 06:30:53;;;;;;;10.40;5.60;;;10.30;99.90;;;;;;5013567;28;20037;-49
2023/04/28 06:33:18;;;;;;;8.33;5.17;;;10.50;99.90;;;;;;5013278;28;20036;-51
2023/04/28 06:35:44;;;;;;;9.60;5.20;;;10.50;99.90;;;;;;5013465;28;20037;-51
2023/04/28 06:38:11;;;;;;;9.70;5.50;;;10.60;99.90;;;;;;5012821;28;20033;-51
2023/04/28 06:40:36;;;;;;;9.33;5.70;;;10.70;99.90;;;;;;5031205;28;20030;-54
2023/04/28 06:43:04;;;;;;;9.67;5.13;;;10.80;99.90;;;;;;5013431;28;20083;-54
2023/04/28 06:45:36;;;;;;;9.93;5.33;;;10.90;99.90;;;;;;5013223;28;20489;-53
2023/04/28 06:48:01;;;;;;;10.53;5.07;;;11.00;99.90;;;;;;5013247;28;20028;-52
2023/04/28 06:50:27;;;;;;;10.53;5.50;;;11.10;99.90;;;;;;5013281;28;20586;-51
2023/04/28 06:52:53;;;;;;;12.10;5.47;;;11.10;99.90;;;;;;5030910;28;20087;-49
2023/04/28 06:55:20;;;;;;;7.43;4.33;;;11.20;99.90;;;;;;5030824;28;20379;-52
2023/04/28 06:57:45;;;;;;;9.47;4.87;;;11.30;99.90;;;;;;5030740;28;20350;-52
2023/04/28 07:00:13;;;;;;;8.37;4.63;;;11.40;99.90;;;;;;5030931;28;20029;-54
2023/04/28 07:02:39;;;;;;;8.50;4.47;;;11.60;99.90;;;;;;5030694;28;20029;-53
2023/04/28 07:05:05;;;;;;;9.37;4.80;;;11.90;99.90;;;;;;5030593;28;20032;-52
2023/04/28 07:07:31;;;;;;;10.20;5.67;;;12.00;99.90;;;;;;5030496;28;20067;-54
2023/04/28 07:09:57;;;;;;;10.57;4.57;;;12.20;99.90;;;;;;5030696;28;20069;-53
2023/04/28 07:12:23;;;;;;;7.10;4.03;;;12.40;99.90;;;;;;5030590;28;20032;-53
2023/04/28 07:14:49;;;;;;;7.13;3.70;;;12.50;99.90;;;;;;5030356;28;20034;-55
2023/04/28 07:17:16;;;;;;;7.20;3.83;;;12.70;99.90;;;;;;5030417;28;20156;-53
2023/04/28 07:19:41;;;;;;;7.97;3.80;;;12.60;99.90;;;;;;5030597;28;20025;-51
2023/04/28 07:22:07;;;;;;;5.60;3.20;;;12.60;99.90;;;;;;5030529;28;20033;-49
2023/04/28 07:24:33;;;;;;;6.03;3.20;;;12.70;99.90;;;;;;5030713;28;20466;-53
2023/04/28 07:26:58;;;;;;;7.53;3.83;;;12.80;99.90;;;;;;5030118;28;20066;-52
2023/04/28 07:29:27;;;;;;;9.17;3.50;;;12.70;99.90;;;;;;5030682;28;20031;-50
2023/04/28 07:31:53;;;;;;;8.57;3.67;;;12.80;99.90;;;;;;5030430;28;20029;-49
2023/04/28 07:34:19;;;;;;;6.03;2.97;;;12.90;99.90;;;;;;5030252;28;20566;-53
2023/04/28 07:36:45;;;;;;;5.38;3.20;;;12.90;99.90;;;;;;5030179;28;20029;-54
2023/04/28 07:39:11;;;;;;;6.53;3.13;;;12.90;99.90;;;;;;5030383;28;20033;-54
2023/04/28 07:41:37;;;;;;;5.97;2.72;;;12.90;99.90;;;;;;5030206;28;20048;-52
2023/04/28 07:44:04;;;;;;;6.57;2.78;;;13.00;99.90;;;;;;5030167;28;20056;-51
2023/04/28 07:46:31;;;;;;;4.38;2.85;;;13.10;99.90;;;;;;5030226;28;20444;-53
2023/04/28 07:48:56;;;;;;;6.32;3.25;;;13.10;99.90;;;;;;5031087;28;20403;-54
2023/04/28 07:51:22;;;;;;;5.10;2.80;;;13.10;99.90;;;;;;5034314;28;20048;-52
2023/04/28 07:53:48;;;;;;;14.90;4.70;;;13.20;99.90;;;;;;5034031;28;20030;-52
2023/04/28 07:56:13;;;;;;;6.38;2.90;;;13.20;99.90;;;;;;5034297;28;20033;-52
2023/04/28 07:58:39;;;;;;;5.97;3.28;;;13.20;99.90;;;;;;5034093;28;20038;-54
2023/04/28 08:01:05;;;;;;;9.20;3.47;;;13.20;99.90;;;;;;5034173;28;20494;-50
2023/04/28 08:03:30;;;;;;;5.35;2.92;;;13.10;99.90;;;;;;5033954;28;20122;-54
2023/04/28 08:05:57;;;;;;;6.15;3.22;;;13.10;99.90;;;;;;5034063;28;20025;-53
2023/04/28 08:08:23;;;;;;;6.25;3.28;;;13.20;99.90;;;;;;5033662;28;20026;-51
2023/04/28 08:10:49;;;;;;;8.90;3.17;;;13.20;99.90;;;;;;5033866;28;20032;-53
2023/04/28 08:13:15;;;;;;;6.72;3.22;;;13.30;99.90;;;;;;5033900;28;20025;-54
2023/04/28 08:15:41;;;;;;;7.20;2.85;;;13.40;99.90;;;;;;5033893;28;20054;-50
2023/04/28 08:18:07;;;;;;;6.53;3.10;;;13.40;99.90;;;;;;5033683;28;20033;-53
2023/04/28 08:20:33;;;;;;;7.03;3.65;;;13.40;99.90;;;;;;5034127;28;20030;-53
2023/04/28 08:22:59;;;;;;;7.25;3.50;;;13.50;99.90;;;;;;5033555;28;20405;-53
2023/04/28 08:25:25;;;;;;;4.97;3.20;;;13.60;99.90;;;;;;5033468;28;20021;-54
2023/04/28 08:27:51;;;;;;;6.93;3.17;;;13.70;99.90;;;;;;5033611;28;20387;-52
2023/04/28 08:30:17;;;;;;;5.43;3.78;;;13.80;99.90;;;;;;5033703;28;20402;-54
2023/04/28 08:32:42;;;;;;;6.35;3.47;;;13.80;99.90;;;;;;5033557;28;20033;-51
2023/04/28 08:35:08;;;;;;;7.30;3.40;;;13.70;99.90;;;;;;5033327;28;20134;-54
2023/04/28 08:37:34;;;;;;;6.80;3.78;;;13.70;99.90;;;;;;5033274;28;20367;-52
2023/04/28 08:40:01;;;;;;;6.88;3.40;;;13.60;99.90;;;;;;5033356;28;20108;-51
2023/04/28 08:42:30;;;;;;;5.78;3.45;;;13.70;99.90;;;;;;5033484;28;20037;-52
2023/04/28 08:45:00;;;;;;;5.90;3.30;;;13.70;99.90;;;;;;5033050;28;20037;-50
2023/04/28 08:47:44;;;;;;;9.23;4.13;;;13.70;99.90;;;;;;5033108;28;20385;-51
2023/04/28 08:50:11;;;;;;;6.95;3.38;;;13.80;99.90;;;;;;5033238;28;20434;-52
2023/04/28 08:52:38;;;;;;;7.97;3.70;;;14.10;99.90;;;;;;5033088;28;20493;-52
2023/04/28 08:55:09;;;;;;;6.65;3.78;;;14.10;99.90;;;;;;5033109;28;20037;-53
2023/04/28 08:57:38;;;;;;;7.05;3.55;;;14.10;99.90;;;;;;5033178;28;20079;-53
2023/04/28 09:00:06;;;;;;;7.50;3.53;;;14.20;99.90;;;;;;5032575;28;20033;-52
2023/04/28 09:02:32;;;;;;;6.15;3.40;;;14.10;99.90;;;;;;5032888;28;20040;-52
2023/04/28 09:04:58;;;;;;;6.70;3.67;;;14.00;99.90;;;;;;5032649;28;20033;-55
2023/04/28 09:07:24;;;;;;;6.72;3.55;;;13.90;99.90;;;;;;5032919;28;20100;-51
2023/04/28 09:09:49;;;;;;;8.00;4.10;;;13.90;99.90;;;;;;5033046;28;20505;-51
2023/04/28 09:12:17;;;;;;;8.65;4.20;;;13.80;99.90;;;;;;5032993;28;20102;-53
2023/04/28 09:14:43;;;;;;;8.60;4.30;;;13.80;99.90;;;;;;5032595;28;20037;-54
2023/04/28 09:17:13;;;;;;;8.40;4.10;;;13.80;99.90;;;;;;5032568;28;20041;-55
2023/04/28 09:19:41;;;;;;;7.78;4.25;;;13.60;99.90;;;;;;5032892;28;20029;-52
2023/04/28 09:22:07;;;;;;;8.88;4.32;;;13.60;99.90;;;;;;5032913;28;20401;-54
2023/04/28 09:24:41;;;;;;;8.35;4.18;;;13.60;99.90;;;;;;5014610;28;20616;-55
2023/04/28 09:27:10;;;;;;;7.40;4.25;;;13.70;99.90;;;;;;5032465;28;20601;-53
2023/04/28 09:29:52;;;;;;;6.88;3.80;;;13.80;99.90;;;;;;5032538;28;20484;-55
2023/04/28 09:32:21;;;;;;;9.93;4.70;;;13.90;99.90;;;;;;5032521;28;20041;-54
2023/04/28 09:34:51;;;;;;;6.97;3.95;;;14.00;99.90;;;;;;5031975;28;20429;-52
2023/04/28 09:37:19;;;;;;;9.05;4.57;;;14.10;99.90;;;;;;5032022;28;20032;-53
2023/04/28 09:39:49;;;;;;;8.20;4.55;;;14.10;99.90;;;;;;5032334;28;20287;-53
2023/04/28 09:42:40;;;;;;;11.43;5.03;;;14.20;99.90;;;;;;5032677;28;20611;-54
2023/04/28 09:45:10;;;;;;;9.77;4.95;;;14.30;99.90;;;;;;5031981;28;20029;-52
2023/04/28 09:47:39;;;;;;;9.07;4.40;;;14.30;99.90;;;;;;5032061;28;20098;-53
2023/04/28 09:50:09;;;;;;;7.65;4.32;;;14.40;99.90;;;;;;5032114;28;20036;-54
2023/04/28 09:52:35;;;;;;;10.75;4.85;;;14.70;99.90;;;;;;5032085;28;20041;-52
2023/04/28 09:55:03;;;;;;;8.57;4.50;;;14.90;99.90;;;;;;5031927;28;20034;-54
2023/04/28 09:57:34;;;;;;;9.05;4.65;;;15.00;99.90;;;;;;5032231;28;20410;-54
2023/04/28 10:00:01;;;;;;;7.82;4.20;;;15.10;99.90;;;;;;5032115;28;20401;-52
2023/04/28 10:02:27;;;;;;;8.35;5.07;;;15.10;99.90;;;;;;5031906;28;20037;-53
2023/04/28 10:04:53;;;;;;;11.20;4.80;;;15.20;99.90;;;;;;5031525;28;20490;-53
2023/04/28 10:07:20;;;;;;;8.75;5.13;;;15.10;99.90;;;;;;5031648;28;20028;-51
2023/04/28 10:09:49;;;;;;;9.50;4.57;;;15.10;99.90;;;;;;5031819;28;20013;-55
2023/04/28 10:12:16;;;;;;;13.00;5.43;;;15.00;99.90;;;;;;5031022;28;20035;-53
2023/04/28 10:14:43;;;;;;;8.18;4.55;;;14.90;99.90;;;;;;5031484;28;20029;-53
2023/04/28 10:17:10;;;;;;;9.40;5.15;;;14.80;99.90;;;;;;5031761;28;20470;-54
2023/04/28 10:19:36;;;;;;;8.55;4.75;;;14.70;99.90;;;;;;5031622;28;20025;-53
2023/04/28 10:22:35;;;;;;;10.95;5.05;;;14.50;99.90;;;;;;5031450;28;20033;-55
2023/04/28 10:25:28;;;;;;;8.45;5.00;;;14.40;99.90;;;;;;5031393;28;20022;-55
2023/04/28 10:27:55;;;;;;;10.88;5.25;;;14.30;99.90;;;;;;5028463;28;20047;-54
2023/04/28 10:30:22;;;;;;;9.93;4.88;;;14.30;99.90;;;;;;5031324;28;20021;-53
2023/04/28 10:33:14;;;;;;;10.23;5.47;;;14.30;99.90;;;;;;5031494;28;20120;-48
2023/04/28 10:35:44;;;;;;;9.45;5.47;;;14.30;99.90;;;;;;5031003;28;20033;-53
2023/04/28 10:38:19;;;;;;;9.40;5.38;;;14.30;99.90;;;;;;5031147;28;20241;-55
2023/04/28 10:40:50;;;;;;;9.32;5.07;;;14.20;99.90;;;;;;5031126;28;20033;-54
2023/04/28 10:43:29;;;;;;;11.00;6.30;;;14.20;99.90;;;;;;5030889;28;20049;-56
2023/04/28 10:46:00;;;;;;;11.10;6.30;;;14.30;99.90;;;;;;5031148;28;20034;-54
2023/04/28 10:48:29;;;;;;;13.02;6.03;;;14.30;99.90;;;;;;5030891;28;20087;-54
2023/04/28 10:51:08;;;;;;;10.73;5.45;;;14.40;99.90;;;;;;5031074;28;20577;-52
2023/04/28 10:53:43;;;;;;;15.15;6.70;;;14.50;99.90;;;;;;5031013;28;20097;-53
2023/04/28 10:56:18;;;;;;;9.00;5.53;;;14.60;99.90;;;;;;5031078;28;20030;-54
2023/04/28 10:58:46;;;;;;;11.25;5.90;;;14.60;99.90;;;;;;5030851;28;20029;-54
2023/04/28 11:01:20;;;;;;;12.75;6.20;;;14.70;99.90;;;;;;5030773;28;20029;-55
2023/04/28 11:03:46;;;;;;;13.63;7.18;;;14.70;99.90;;;;;;5030472;28;20075;-53
2023/04/28 11:06:27;;;;;;;10.25;6.65;;;14.50;99.90;;;;;;5030780;28;20038;-54
2023/04/28 11:08:56;;;;;;;11.70;6.68;;;14.50;99.90;;;;;;5030717;28;20026;-53
2023/04/28 11:11:26;;;;;;;11.80;6.90;;;14.40;99.90;;;;;;5030816;28;20556;-51
2023/04/28 11:13:54;;;;;;;11.45;7.10;;;14.40;99.90;;;;;;5030410;28;20481;-52
2023/04/28 11:16:22;;;;;;;10.63;6.85;;;14.30;99.90;;;;;;5030698;28;20060;-52
2023/04/28 11:18:58;;;;;;;10.40;6.97;;;14.30;99.90;;;;;;5030583;28;20163;-51
2023/04/28 11:21:26;;;;;;;12.10;7.30;;;14.30;99.90;;;;;;5030654;28;20029;-51
2023/04/28 11:23:53;;;;;;;16.83;9.50;;;14.30;99.90;;;;;;5030217;28;20059;-51
2023/04/28 11:26:19;;;;;;;13.40;7.43;;;14.40;99.90;;;;;;5030457;28;20497;-51
2023/04/28 11:28:49;;;;;;;14.50;7.95;;;14.50;99.90;;;;;;5030433;28;20036;-51
2023/04/28 11:31:18;;;;;;;13.43;8.00;;;14.60;99.90;;;;;;5030456;28;20021;-50
2023/04/28 11:34:06;;;;;;;19.90;10.73;;;14.60;99.90;;;;;;5030599;28;20040;-53
2023/04/28 11:36:37;;;;;;;13.15;8.70;;;14.60;99.90;;;;;;5030200;28;20030;-52
2023/04/28 11:39:07;;;;;;;14.93;8.00;;;14.70;99.90;;;;;;5030269;28;20029;-55
2023/04/28 11:41:34;;;;;;;14.30;8.25;;;14.70;99.90;;;;;;5030232;28;20057;-53
2023/04/28 11:44:08;;;;;;;11.38;7.90;;;14.70;99.90;;;;;;5029991;28;20474;-51
2023/04/28 11:46:34;;;;;;;14.07;8.57;;;14.70;99.90;;;;;;5030146;28;20083;-51
2023/04/28 11:49:04;;;;;;;15.80;8.93;;;14.70;99.90;;;;;;5030320;28;20029;-49
2023/04/28 11:51:31;;;;;;;14.15;8.85;;;14.60;99.90;;;;;;5030241;28;20032;-54
2023/04/28 11:53:57;;;;;;;15.30;9.57;;;14.60;99.90;;;;;;5029941;28;20030;-51
2023/04/28 11:56:23;;;;;;;16.52;10.30;;;14.70;99.90;;;;;;5030308;28;20109;-52
2023/04/28 11:59:10;;;;;;;16.00;10.10;;;14.60;99.90;;;;;;5030220;28;20025;-53
2023/04/28 12:01:46;;;;;;;14.50;9.50;;;14.60;99.90;;;;;;5030172;28;20043;-53
2023/04/28 12:04:12;;;;;;;17.27;10.45;;;14.60;99.90;;;;;;5029927;28;20079;-52
2023/04/28 12:06:39;;;;;;;17.27;10.73;;;14.60;99.90;;;;;;5030050;28;20026;-53
2023/04/28 12:09:23;;;;;;;14.88;9.63;;;14.60;99.90;;;;;;5030092;28;20100;-54
2023/04/28 12:11:58;;;;;;;14.73;9.18;;;14.60;99.90;;;;;;5030146;28;20046;-52
2023/04/28 12:14:24;;;;;;;17.90;10.32;;;14.70;99.90;;;;;;5029768;28;20556;-51
2023/04/28 12:16:50;;;;;;;14.90;9.40;;;14.80;99.90;;;;;;5029939;28;20033;-51
2023/04/28 12:19:18;;;;;;;14.77;8.93;;;14.90;99.90;;;;;;5030069;28;20055;-52
2023/04/28 12:22:01;;;;;;;14.07;8.40;;;15.00;99.90;;;;;;5030040;28;20034;-51
2023/04/28 12:24:27;;;;;;;9.98;6.95;;;15.20;99.90;;;;;;5030319;28;20152;-50
2023/04/28 12:26:53;;;;;;;11.35;6.93;;;15.30;99.90;;;;;;5029772;28;20029;-49
2023/04/28 12:29:38;;;;;;;10.13;6.75;;;15.40;99.90;;;;;;5030062;28;20033;-52
2023/04/28 12:32:09;;;;;;;8.70;5.95;;;15.40;99.90;;;;;;5030031;28;20041;-51
2023/04/28 12:34:35;;;;;;;7.70;5.68;;;15.60;99.90;;;;;;5029861;28;20030;-55
2023/04/28 12:37:04;;;;;;;7.85;5.50;;;15.80;99.90;;;;;;5033427;28;20029;-53
2023/04/28 12:39:35;;;;;;;7.93;5.07;;;16.10;99.90;;;;;;5033556;28;20406;-52
2023/04/28 12:42:02;;;;;;;6.22;4.50;;;16.50;99.90;;;;;;5033456;28;20029;-54
2023/04/28 12:44:34;;;;;;;6.88;4.95;;;17.00;99.90;;;;;;5033234;28;20033;-54
2023/04/28 12:47:06;;;;;;;6.30;4.28;;;17.40;99.90;;;;;;5033204;28;20470;-54
2023/04/28 12:49:34;;;;;;;5.80;3.90;;;17.80;99.90;;;;;;5033813;28;20530;-53